createdAt,value
2019-01-13T00:04:02.439Z,101135.19
2019-01-13T00:09:12.965Z,101128.48
2019-01-13T00:14:26.877Z,101132.37
2019-01-13T00:19:34.563Z,101135.09
2019-01-13T00:24:42.315Z,101136.25
2019-01-13T00:29:52.066Z,101118.55
2019-01-13T00:35:04.709Z,101109.52
2019-01-13T00:40:18.413Z,101114.92
2019-01-13T00:45:29.127Z,101118.67
2019-01-13T00:50:40.164Z,101116.44
2019-01-13T00:55:49.412Z,101115.79
2019-01-13T01:00:58.032Z,101109.81
2019-01-13T01:06:04.623Z,101110.75
2019-01-13T01:11:16.930Z,101122.41
2019-01-13T01:16:28.747Z,101111.82
2019-01-13T01:21:38.661Z,101102.80
2019-01-13T01:26:48.644Z,101090.87
2019-01-13T01:32:01.308Z,101082.92
2019-01-13T01:37:10.980Z,101074.09
2019-01-13T01:42:18.638Z,101060.31
2019-01-13T01:47:32.260Z,101041.33
2019-01-13T01:52:44.326Z,101033.25
2019-01-13T01:58:01.931Z,101034.71
2019-01-13T02:03:12.628Z,101029.61
2019-01-13T02:08:19.441Z,101043.02
2019-01-13T02:13:25.842Z,101046.30
2019-01-13T02:18:37.455Z,101059.10
2019-01-13T02:23:46.474Z,101061.22
2019-01-13T02:28:56.279Z,101051.94
2019-01-13T02:34:07.074Z,101070.94
2019-01-13T02:39:14.860Z,101075.73
2019-01-13T02:44:23.992Z,101056.61
2019-01-13T02:49:32.856Z,101041.55
2019-01-13T02:54:44.919Z,101038.94
2019-01-13T02:59:56.592Z,101023.37
2019-01-13T03:05:05.713Z,101005.95
2019-01-13T03:10:23.597Z,100991.24
2019-01-13T03:15:34.461Z,101002.30
2019-01-13T03:20:44.516Z,100985.95
2019-01-13T03:25:54.409Z,100965.86
2019-01-13T03:31:11.762Z,100960.64
2019-01-13T03:36:15.464Z,100928.34
2019-01-13T03:41:27.947Z,100928.34
2019-01-13T03:46:39.822Z,100940.86
2019-01-13T03:51:55.207Z,100946.80
2019-01-13T03:57:03.443Z,100940.06
2019-01-13T04:02:12.869Z,100908.20
2019-01-13T04:07:30.288Z,100870.27
2019-01-13T04:12:39.243Z,100868.16
2019-01-13T04:17:49.902Z,100859.33
2019-01-13T04:22:56.935Z,100842.78
2019-01-13T04:28:08.550Z,100849.62
2019-01-13T04:33:17.394Z,100830.95
2019-01-13T04:38:24.841Z,100800.00
2019-01-13T04:43:34.655Z,100801.00
2019-01-13T04:48:44.454Z,100790.13
2019-01-13T04:53:52.874Z,100763.95
2019-01-13T04:59:02.966Z,100748.20
2019-01-13T05:04:11.446Z,100749.47
2019-01-13T05:10:34.053Z,100741.25
2019-01-13T05:15:45.771Z,100741.52
2019-01-13T05:20:54.671Z,100743.94
2019-01-13T05:26:07.241Z,100740.94
2019-01-13T05:31:18.828Z,100737.02
2019-01-13T05:36:27.822Z,100736.45
2019-01-13T05:41:40.402Z,100738.05
2019-01-13T05:46:48.674Z,100736.20
2019-01-13T05:52:00.262Z,100718.22
2019-01-13T05:57:13.474Z,100712.07
2019-01-13T06:02:21.595Z,100704.63
2019-01-13T06:07:29.147Z,100693.11
2019-01-13T06:12:39.109Z,100688.44
2019-01-13T06:17:48.387Z,100696.66
2019-01-13T06:22:54.922Z,100685.81
2019-01-13T06:28:04.610Z,100681.45
2019-01-13T06:33:13.912Z,100684.30
2019-01-13T06:38:23.783Z,100676.45
2019-01-13T06:43:30.599Z,100666.78
2019-01-13T06:48:39.138Z,100666.80
2019-01-13T06:53:48.915Z,100663.61
2019-01-13T06:58:56.403Z,100662.92
2019-01-13T07:04:09.763Z,100653.16
2019-01-13T07:09:21.319Z,100647.21
2019-01-13T07:14:32.894Z,100651.37
2019-01-13T07:19:44.490Z,100638.05
2019-01-13T07:24:51.313Z,100631.00
2019-01-13T07:30:03.813Z,100641.27
2019-01-13T07:35:15.308Z,100646.55
2019-01-13T07:40:30.883Z,100648.13
2019-01-13T07:45:37.589Z,100653.75
2019-01-13T07:50:47.155Z,100649.95
2019-01-13T07:56:01.347Z,100650.11
2019-01-13T08:01:11.999Z,100643.75
2019-01-13T08:06:21.710Z,100635.34
2019-01-13T08:11:31.427Z,100635.06
2019-01-13T08:16:42.052Z,100634.70
2019-01-13T08:21:52.674Z,100622.73
2019-01-13T08:27:02.952Z,100624.31
2019-01-13T08:32:11.938Z,100612.18
2019-01-13T08:37:22.597Z,100604.70
2019-01-13T08:42:34.473Z,100612.88
2019-01-13T08:47:41.738Z,100596.80
2019-01-13T08:52:50.894Z,100596.20
2019-01-13T08:58:08.677Z,100585.13
2019-01-13T09:03:18.547Z,100576.49
2019-01-13T09:08:30.212Z,100562.06
2019-01-13T09:13:40.398Z,100563.89
2019-01-13T09:18:53.668Z,100554.36
2019-01-13T09:24:02.531Z,100552.39
2019-01-13T09:29:15.020Z,100531.97
2019-01-13T09:34:26.560Z,100543.25
2019-01-13T09:39:36.258Z,100549.36
2019-01-13T09:44:45.169Z,100536.69
2019-01-13T09:49:57.316Z,100545.25
2019-01-13T09:55:07.143Z,100541.59
2019-01-13T10:00:30.649Z,100540.75
2019-01-13T10:05:40.531Z,100535.98
2019-01-13T10:10:53.701Z,100528.79
2019-01-13T10:16:05.186Z,100522.47
2019-01-13T10:21:14.084Z,100496.91
2019-01-13T10:26:25.315Z,100492.47
2019-01-13T10:31:34.275Z,100496.66
2019-01-13T10:36:44.035Z,100497.64
2019-01-13T10:41:52.200Z,100482.09
2019-01-13T10:47:05.168Z,100464.81
2019-01-13T10:52:16.098Z,100461.55
2019-01-13T10:57:25.450Z,100462.45
2019-01-13T11:02:37.041Z,100466.14
2019-01-13T11:07:49.192Z,100448.35
2019-01-13T11:12:56.004Z,100446.50
2019-01-13T11:18:07.655Z,100431.07
2019-01-13T11:23:18.416Z,100409.23
2019-01-13T11:28:27.300Z,100403.13
2019-01-13T11:33:41.157Z,100403.22
2019-01-13T11:38:51.855Z,100380.45
2019-01-13T11:44:00.455Z,100389.47
2019-01-13T11:49:13.291Z,100383.97
2019-01-13T11:54:23.978Z,100372.98
2019-01-13T11:59:33.510Z,100361.84
2019-01-13T12:04:43.234Z,100341.48
2019-01-13T12:09:51.719Z,100343.25
2019-01-13T12:14:59.270Z,100346.30
2019-01-13T12:20:12.615Z,100346.97
2019-01-13T12:25:25.342Z,100331.00
2019-01-13T12:30:35.609Z,100315.57
2019-01-13T12:35:45.835Z,100298.66
2019-01-13T12:40:54.212Z,100290.34
2019-01-13T12:46:05.829Z,100289.45
2019-01-13T12:51:14.555Z,100283.59
2019-01-13T12:56:24.162Z,100278.02
2019-01-13T13:01:32.622Z,100261.09
2019-01-13T13:06:43.267Z,100250.88
2019-01-13T13:11:54.402Z,100244.50
2019-01-13T13:17:06.274Z,100240.16
2019-01-13T13:22:14.179Z,100231.91
2019-01-13T13:27:26.662Z,100217.70
2019-01-13T13:32:39.331Z,100219.45
2019-01-13T13:37:50.975Z,100225.34
2019-01-13T13:43:04.451Z,100226.17
2019-01-13T13:48:16.068Z,100222.81
2019-01-13T13:53:29.503Z,100220.72
2019-01-13T13:58:44.997Z,100197.05
2019-01-13T14:03:56.220Z,100216.23
2019-01-13T14:09:06.957Z,100214.78
2019-01-13T14:14:16.404Z,100210.76
2019-01-13T14:19:28.933Z,100191.42
2019-01-13T14:24:39.694Z,100216.08
2019-01-13T14:29:47.415Z,100204.43
2019-01-13T14:35:00.370Z,100187.64
2019-01-13T14:40:14.566Z,100179.86
2019-01-13T14:45:24.377Z,100183.25
2019-01-13T14:50:34.851Z,100189.26
2019-01-13T14:55:44.581Z,100186.02
2019-01-13T15:00:54.361Z,100185.58
2019-01-13T15:06:06.025Z,100180.67
2019-01-13T15:11:19.570Z,100185.38
2019-01-13T15:16:32.881Z,100172.66
2019-01-13T15:21:45.697Z,100175.14
2019-01-13T15:26:57.352Z,100170.21
2019-01-13T15:32:05.603Z,100171.75
2019-01-13T15:37:15.396Z,100160.50
2019-01-13T15:42:27.495Z,100161.28
2019-01-13T15:47:37.831Z,100152.12
2019-01-13T15:52:50.448Z,100156.66
2019-01-13T15:58:03.528Z,100150.34
2019-01-13T16:03:14.722Z,100140.34
2019-01-13T16:08:27.346Z,100148.03
2019-01-13T16:13:39.803Z,100150.11
2019-01-13T16:18:55.052Z,100138.33
2019-01-13T16:24:06.633Z,100138.33
2019-01-13T16:29:20.076Z,100140.17
2019-01-13T16:34:30.751Z,100130.47
2019-01-13T16:39:39.203Z,100119.09
2019-01-13T16:44:48.059Z,100108.28
2019-01-13T16:49:57.911Z,100102.79
2019-01-13T16:55:05.411Z,100113.05
2019-01-13T17:00:22.216Z,100107.41
2019-01-13T17:05:31.098Z,100098.93
2019-01-13T17:10:41.472Z,100158.53
2019-01-13T17:15:55.232Z,100158.53
2019-01-13T17:21:01.462Z,100180.20
2019-01-13T17:26:13.960Z,100156.64
2019-01-13T17:31:27.813Z,100153.23
2019-01-13T17:36:41.610Z,100153.78
2019-01-13T17:41:50.062Z,100155.13
2019-01-13T17:46:59.852Z,100163.49
2019-01-13T17:52:05.925Z,100158.92
2019-01-13T17:57:16.323Z,100156.06
2019-01-13T18:02:23.615Z,100153.33
2019-01-13T18:07:33.057Z,100158.02
2019-01-13T18:12:43.661Z,100149.41
2019-01-13T18:17:53.936Z,100151.58
2019-01-13T18:23:06.437Z,100151.38
2019-01-13T18:28:13.910Z,100160.27
2019-01-13T18:33:23.662Z,100161.94
2019-01-13T18:38:32.566Z,100172.80
2019-01-13T18:43:43.297Z,100168.42
2019-01-13T18:48:51.907Z,100172.01
2019-01-13T18:54:01.539Z,100164.48
2019-01-13T18:59:10.366Z,100175.37
2019-01-13T19:04:17.871Z,100175.23
2019-01-13T19:09:28.352Z,100191.08
2019-01-13T19:14:37.866Z,100183.25
2019-01-13T19:19:58.784Z,100197.69
2019-01-13T19:25:09.768Z,100211.02
2019-01-13T19:30:17.067Z,100207.78
2019-01-13T19:35:23.497Z,100212.84
2019-01-13T19:40:30.564Z,100208.05
2019-01-13T19:45:38.848Z,100225.52
2019-01-13T19:50:46.949Z,100228.48
2019-01-13T19:55:53.155Z,100229.20
2019-01-13T20:01:00.244Z,100234.18
2019-01-13T20:06:13.216Z,100242.54
2019-01-13T20:11:21.002Z,100258.48
2019-01-13T20:16:28.037Z,100262.00
2019-01-13T20:21:34.422Z,100257.55
2019-01-13T20:26:43.172Z,100276.69
2019-01-13T20:31:52.837Z,100270.48
2019-01-13T20:37:02.359Z,100274.00
2019-01-13T20:42:14.049Z,100295.84
2019-01-13T20:47:23.133Z,100295.84
2019-01-13T20:52:35.939Z,100294.13
2019-01-13T20:57:45.119Z,100287.66
2019-01-13T21:02:56.301Z,100296.14
2019-01-13T21:08:04.211Z,100303.19
2019-01-13T21:13:11.340Z,100306.05
2019-01-13T21:18:21.563Z,100300.12
2019-01-13T21:23:28.932Z,100296.83
2019-01-13T21:28:39.850Z,100299.67
2019-01-13T21:33:46.943Z,100302.39
2019-01-13T21:38:54.298Z,100307.65
2019-01-13T21:44:01.549Z,100318.47
2019-01-13T21:49:11.350Z,100314.45
2019-01-13T21:54:18.934Z,100327.84
2019-01-13T21:59:26.885Z,100337.08
2019-01-13T22:04:36.575Z,100333.70
2019-01-13T22:09:42.025Z,100328.98
2019-01-13T22:14:49.683Z,100327.99
2019-01-13T22:19:59.202Z,100328.73
2019-01-13T22:25:07.822Z,100350.20
2019-01-13T22:30:18.224Z,100390.91
2019-01-13T22:35:25.615Z,100380.75
2019-01-13T22:40:32.959Z,100413.66
2019-01-13T22:45:41.182Z,100413.66
2019-01-13T22:50:49.415Z,100396.11
2019-01-13T22:55:57.583Z,100383.66
2019-01-13T23:01:33.761Z,100389.75
2019-01-13T23:06:43.174Z,100398.83
2019-01-13T23:11:51.083Z,100398.83
2019-01-13T23:16:59.778Z,100408.75
2019-01-13T23:22:07.485Z,100403.39
2019-01-13T23:27:17.856Z,100409.64
2019-01-13T23:32:27.746Z,100424.88
2019-01-13T23:37:36.359Z,100425.14
2019-01-13T23:42:45.910Z,100424.56
2019-01-13T23:47:54.948Z,100415.53
2019-01-13T23:53:01.836Z,100424.36
2019-01-13T23:58:12.845Z,100436.39
